createdAt,value
2023-04-16T00:00:41.732Z,0.00
2023-04-16T00:01:41.761Z,0.00
2023-04-16T00:02:41.937Z,0.00
2023-04-16T00:03:41.940Z,0.00
2023-04-16T00:04:41.780Z,0.00
2023-04-16T00:05:41.673Z,0.00
2023-04-16T00:06:41.671Z,0.00
2023-04-16T00:07:41.665Z,0.00
2023-04-16T00:08:41.654Z,0.00
2023-04-16T00:09:41.630Z,0.00
2023-04-16T00:10:41.633Z,0.00
2023-04-16T00:11:41.618Z,0.00
2023-04-16T00:12:41.622Z,0.00
2023-04-16T00:13:41.607Z,0.00
2023-04-16T00:14:41.581Z,0.00
2023-04-16T00:15:41.561Z,0.00
2023-04-16T00:16:41.589Z,0.00
2023-04-16T00:17:41.565Z,0.00
2023-04-16T00:18:41.557Z,0.00
2023-04-16T00:19:41.519Z,0.00
2023-04-16T00:20:41.521Z,0.00
2023-04-16T00:21:41.494Z,0.00
2023-04-16T00:22:41.508Z,0.00
2023-04-16T00:23:41.472Z,0.00
2023-04-16T00:24:41.465Z,0.00
2023-04-16T00:25:41.451Z,0.00
2023-04-16T00:26:41.455Z,0.00
2023-04-16T00:27:41.429Z,0.00
2023-04-16T00:28:41.420Z,0.00
2023-04-16T00:29:41.416Z,0.00
2023-04-16T00:30:41.437Z,0.00
2023-04-16T00:31:41.384Z,0.00
2023-04-16T00:32:41.410Z,0.00
2023-04-16T00:33:41.378Z,0.00
2023-04-16T00:34:41.386Z,0.00
2023-04-16T00:35:41.352Z,0.00
2023-04-16T00:36:41.331Z,0.00
2023-04-16T00:37:41.316Z,0.00
2023-04-16T00:38:41.324Z,0.00
2023-04-16T00:39:41.312Z,0.00
2023-04-16T00:40:41.308Z,0.00
2023-04-16T00:41:41.295Z,0.00
2023-04-16T00:42:48.882Z,0.00
2023-04-16T00:43:41.260Z,0.00
2023-04-16T00:44:41.258Z,0.00
2023-04-16T00:45:41.241Z,0.00
2023-04-16T00:46:41.332Z,0.00
2023-04-16T00:47:41.256Z,0.00
2023-04-16T00:48:41.215Z,0.00
2023-04-16T00:49:41.188Z,0.00
2023-04-16T00:50:41.212Z,0.00
2023-04-16T00:51:41.166Z,0.00
2023-04-16T00:52:41.160Z,0.00
2023-04-16T00:53:41.156Z,0.00
2023-04-16T00:54:41.163Z,0.00
2023-04-16T00:55:41.138Z,0.00
2023-04-16T00:56:41.110Z,0.00
2023-04-16T00:57:41.124Z,0.00
2023-04-16T00:58:41.106Z,0.00
2023-04-16T00:59:41.078Z,0.00
2023-04-16T01:00:41.066Z,0.00
2023-04-16T01:01:41.100Z,0.00
2023-04-16T01:02:41.190Z,0.00
2023-04-16T01:03:41.450Z,0.00
2023-04-16T01:04:41.031Z,0.00
2023-04-16T01:05:41.024Z,0.00
2023-04-16T01:06:41.049Z,0.00
2023-04-16T01:07:40.995Z,0.00
2023-04-16T01:08:40.998Z,0.00
2023-04-16T01:09:40.981Z,0.00
2023-04-16T01:10:40.960Z,0.00
2023-04-16T01:11:40.947Z,0.00
2023-04-16T01:12:40.950Z,0.00
2023-04-16T01:13:40.951Z,0.00
2023-04-16T01:14:40.922Z,0.00
2023-04-16T01:15:40.948Z,0.00
2023-04-16T01:16:40.896Z,0.00
2023-04-16T01:17:40.940Z,0.00
2023-04-16T01:18:40.889Z,0.00
2023-04-16T01:19:40.873Z,0.00
2023-04-16T01:20:40.861Z,0.00
2023-04-16T01:21:40.850Z,0.00
2023-04-16T01:22:40.869Z,0.00
2023-04-16T01:23:40.828Z,0.00
2023-04-16T01:24:40.818Z,0.00
2023-04-16T01:25:40.810Z,0.00
2023-04-16T01:26:40.807Z,0.00
2023-04-16T01:27:40.805Z,0.00
2023-04-16T01:28:40.774Z,0.00
2023-04-16T01:29:40.769Z,0.00
2023-04-16T01:30:40.762Z,0.00
2023-04-16T01:31:40.772Z,0.00
2023-04-16T01:32:40.734Z,0.00
2023-04-16T01:33:40.723Z,0.00
2023-04-16T01:34:40.703Z,0.00
2023-04-16T01:35:40.704Z,0.00
2023-04-16T01:36:40.701Z,0.00
2023-04-16T01:37:40.668Z,0.00
2023-04-16T01:38:40.695Z,0.00
2023-04-16T01:39:40.647Z,0.00
2023-04-16T01:40:40.638Z,0.00
2023-04-16T01:41:40.620Z,0.00
2023-04-16T01:42:40.616Z,0.00
2023-04-16T01:43:40.614Z,0.00
2023-04-16T01:44:40.594Z,0.00
2023-04-16T01:45:40.577Z,0.00
2023-04-16T01:46:40.635Z,0.00
2023-04-16T01:47:40.614Z,0.00
2023-04-16T01:48:40.546Z,0.00
2023-04-16T01:49:40.534Z,0.00
2023-04-16T01:50:40.525Z,0.00
2023-04-16T01:51:40.513Z,0.00
2023-04-16T01:52:40.529Z,0.00
2023-04-16T01:53:40.510Z,0.00
2023-04-16T01:54:40.504Z,0.00
2023-04-16T01:55:40.484Z,0.00
2023-04-16T01:56:40.464Z,0.00
2023-04-16T01:57:40.449Z,0.00
2023-04-16T01:58:40.441Z,0.00
2023-04-16T01:59:40.439Z,0.00
2023-04-16T02:00:40.522Z,0.00
2023-04-16T02:01:40.419Z,0.00
2023-04-16T02:02:40.500Z,0.00
2023-04-16T02:03:40.661Z,0.00
2023-04-16T02:04:40.383Z,0.00
2023-04-16T02:05:40.360Z,0.00
2023-04-16T02:06:40.364Z,0.00
2023-04-16T02:07:40.339Z,0.00
2023-04-16T02:08:40.329Z,0.00
2023-04-16T02:09:40.318Z,0.00
2023-04-16T02:10:40.328Z,0.00
2023-04-16T02:11:40.310Z,0.00
2023-04-16T02:12:40.288Z,0.00
2023-04-16T02:13:40.271Z,0.00
2023-04-16T02:14:40.260Z,0.00
2023-04-16T02:15:40.258Z,0.00
2023-04-16T02:16:40.288Z,0.00
2023-04-16T02:17:40.266Z,0.00
2023-04-16T02:18:40.219Z,0.00
2023-04-16T02:19:40.201Z,0.00
2023-04-16T02:20:40.196Z,0.00
2023-04-16T02:21:40.182Z,0.00
2023-04-16T02:22:40.186Z,0.00
2023-04-16T02:23:40.157Z,0.00
2023-04-16T02:24:40.157Z,0.00
2023-04-16T02:25:40.149Z,0.00
2023-04-16T02:26:40.147Z,0.00
2023-04-16T02:27:40.134Z,0.00
2023-04-16T02:28:40.115Z,0.00
2023-04-16T02:29:40.091Z,0.00
2023-04-16T02:30:40.107Z,0.00
2023-04-16T02:31:40.156Z,0.00
2023-04-16T02:32:40.136Z,0.00
2023-04-16T02:33:40.067Z,0.00
2023-04-16T02:34:40.069Z,0.00
2023-04-16T02:35:40.066Z,0.00
2023-04-16T02:36:40.010Z,0.00
2023-04-16T02:37:40.004Z,0.00
2023-04-16T02:38:39.998Z,0.00
2023-04-16T02:39:39.982Z,0.00
2023-04-16T02:40:39.994Z,0.00
2023-04-16T02:41:40.146Z,0.00
2023-04-16T02:42:39.972Z,0.00
2023-04-16T02:43:46.964Z,0.00
2023-04-16T02:44:39.938Z,0.00
2023-04-16T02:45:39.970Z,0.00
2023-04-16T02:46:39.914Z,0.00
2023-04-16T02:47:39.932Z,0.00
2023-04-16T02:48:39.883Z,0.00
2023-04-16T02:49:39.887Z,0.00
2023-04-16T02:50:39.858Z,0.00
2023-04-16T02:51:39.849Z,0.00
2023-04-16T02:52:39.846Z,0.00
2023-04-16T02:53:39.829Z,0.00
2023-04-16T02:54:39.828Z,0.00
2023-04-16T02:55:39.818Z,0.00
2023-04-16T02:56:39.836Z,0.00
2023-04-16T02:57:39.798Z,0.00
2023-04-16T02:58:39.789Z,0.00
2023-04-16T02:59:39.765Z,0.00
2023-04-16T03:00:39.758Z,0.00
2023-04-16T03:01:39.865Z,0.00
2023-04-16T03:02:39.840Z,0.00
2023-04-16T03:03:39.753Z,0.00
2023-04-16T03:04:39.821Z,0.00
2023-04-16T03:05:40.292Z,0.00
2023-04-16T03:06:39.682Z,0.00
2023-04-16T03:07:39.676Z,0.00
2023-04-16T03:08:39.675Z,0.00
2023-04-16T03:09:39.653Z,0.00
2023-04-16T03:10:39.638Z,0.00
2023-04-16T03:11:39.634Z,0.00
2023-04-16T03:12:39.615Z,0.00
2023-04-16T03:13:39.619Z,0.00
2023-04-16T03:14:39.614Z,0.00
2023-04-16T03:15:39.606Z,0.00
2023-04-16T03:16:39.578Z,0.00
2023-04-16T03:17:39.598Z,0.00
2023-04-16T03:18:39.557Z,0.00
2023-04-16T03:19:39.551Z,0.00
2023-04-16T03:20:39.548Z,0.00
2023-04-16T03:21:39.543Z,0.00
2023-04-16T03:22:39.531Z,0.00
2023-04-16T03:23:39.517Z,0.00
2023-04-16T03:24:39.511Z,0.00
2023-04-16T03:25:39.479Z,0.00
2023-04-16T03:26:39.462Z,0.00
2023-04-16T03:27:39.456Z,0.00
2023-04-16T03:28:39.451Z,0.00
2023-04-16T03:29:39.439Z,0.00
2023-04-16T03:30:39.453Z,0.00
2023-04-16T03:31:39.477Z,0.00
2023-04-16T03:32:39.493Z,0.00
2023-04-16T03:33:39.390Z,0.00
2023-04-16T03:34:39.396Z,0.00
2023-04-16T03:35:39.383Z,0.00
2023-04-16T03:36:39.362Z,0.00
2023-04-16T03:37:39.385Z,0.00
2023-04-16T03:38:39.355Z,0.00
2023-04-16T03:39:39.324Z,0.00
2023-04-16T03:40:39.311Z,0.00
2023-04-16T03:41:39.308Z,0.00
2023-04-16T03:42:39.312Z,0.00
2023-04-16T03:43:39.282Z,0.00
2023-04-16T03:44:39.276Z,0.00
2023-04-16T03:45:39.257Z,0.00
2023-04-16T03:46:39.288Z,0.00
2023-04-16T03:47:39.299Z,0.00
2023-04-16T03:48:39.232Z,0.00
2023-04-16T03:49:39.222Z,0.00
2023-04-16T03:50:39.199Z,0.00
2023-04-16T03:51:39.190Z,0.00
2023-04-16T03:52:39.199Z,0.00
2023-04-16T03:53:39.179Z,0.00
2023-04-16T03:54:39.167Z,0.00
2023-04-16T03:55:39.146Z,0.00
2023-04-16T03:56:39.134Z,0.00
2023-04-16T03:57:39.146Z,0.00
2023-04-16T03:58:39.118Z,0.00
2023-04-16T03:59:39.109Z,0.00
2023-04-16T04:00:39.091Z,0.00
2023-04-16T04:01:39.106Z,0.00
2023-04-16T04:02:39.289Z,0.00
2023-04-16T04:03:39.419Z,0.00
2023-04-16T04:04:39.092Z,0.00
2023-04-16T04:05:39.044Z,0.00
2023-04-16T04:06:39.024Z,0.00
2023-04-16T04:07:39.029Z,0.00
2023-04-16T04:08:39.037Z,0.00
2023-04-16T04:09:38.991Z,0.00
2023-04-16T04:10:39.156Z,0.00
2023-04-16T04:11:38.976Z,4.00
2023-04-16T04:12:38.955Z,4.00
2023-04-16T04:13:38.951Z,0.00
2023-04-16T04:14:38.937Z,4.00
2023-04-16T04:15:38.958Z,4.00
2023-04-16T04:16:39.014Z,0.00
2023-04-16T04:17:38.978Z,4.00
2023-04-16T04:18:38.910Z,8.00
2023-04-16T04:19:42.337Z,4.00
2023-04-16T04:20:38.887Z,4.00
2023-04-16T04:21:38.865Z,8.00
2023-04-16T04:22:38.853Z,8.00
2023-04-16T04:23:38.839Z,12.00
2023-04-16T04:24:38.828Z,12.00
2023-04-16T04:25:38.832Z,16.00
2023-04-16T04:26:38.807Z,16.00
2023-04-16T04:27:38.797Z,16.00
2023-04-16T04:28:38.806Z,24.00
2023-04-16T04:29:38.791Z,28.00
2023-04-16T04:30:38.781Z,36.00
2023-04-16T04:31:38.814Z,44.00
2023-04-16T04:32:38.801Z,52.00
2023-04-16T04:33:38.736Z,56.00
2023-04-16T04:34:38.735Z,60.00
2023-04-16T04:35:38.720Z,64.00
2023-04-16T04:36:38.708Z,68.00
2023-04-16T04:37:38.682Z,68.00
2023-04-16T04:38:38.683Z,68.00
2023-04-16T04:39:38.667Z,72.00
2023-04-16T04:40:38.649Z,72.00
2023-04-16T04:41:38.663Z,76.00
2023-04-16T04:42:38.637Z,84.00
2023-04-16T04:43:38.624Z,88.00
2023-04-16T04:44:46.119Z,92.00
2023-04-16T04:45:38.648Z,100.00
2023-04-16T04:46:38.586Z,108.00
2023-04-16T04:47:38.692Z,116.00
2023-04-16T04:48:38.559Z,128.00
2023-04-16T04:49:38.562Z,132.00
2023-04-16T04:50:38.557Z,136.00
2023-04-16T04:51:38.534Z,136.00
2023-04-16T04:52:38.522Z,140.00
2023-04-16T04:53:38.526Z,144.00
2023-04-16T04:54:38.523Z,148.00
2023-04-16T04:55:38.488Z,168.00
2023-04-16T04:56:38.508Z,176.00
2023-04-16T04:57:38.508Z,176.00
2023-04-16T04:58:38.457Z,188.00
2023-04-16T04:59:38.442Z,212.00
2023-04-16T05:00:38.453Z,240.00
2023-04-16T05:01:38.490Z,260.00
2023-04-16T05:02:38.454Z,292.00
2023-04-16T05:03:38.520Z,316.00
2023-04-16T05:04:38.454Z,332.00
2023-04-16T05:05:38.389Z,320.00
2023-04-16T05:06:38.382Z,324.00
2023-04-16T05:07:38.357Z,344.00
2023-04-16T05:08:38.339Z,336.00
2023-04-16T05:09:38.338Z,296.00
2023-04-16T05:10:38.344Z,272.00
2023-04-16T05:11:38.327Z,268.00
2023-04-16T05:12:38.308Z,264.00
2023-04-16T05:13:38.301Z,276.00
2023-04-16T05:14:38.289Z,292.00
2023-04-16T05:15:38.291Z,316.00
2023-04-16T05:16:38.335Z,332.00
2023-04-16T05:17:38.314Z,332.00
2023-04-16T05:18:38.246Z,332.00
2023-04-16T05:19:38.232Z,352.00
2023-04-16T05:20:38.227Z,352.00
2023-04-16T05:21:38.204Z,348.00
2023-04-16T05:22:38.226Z,352.00
2023-04-16T05:23:38.184Z,364.00
2023-04-16T05:24:38.184Z,368.00
2023-04-16T05:25:38.160Z,368.00
2023-04-16T05:26:38.151Z,360.00
2023-04-16T05:27:38.134Z,344.00
2023-04-16T05:28:38.146Z,344.00
2023-04-16T05:29:38.114Z,356.00
2023-04-16T05:30:38.156Z,344.00
2023-04-16T05:31:38.094Z,360.00
2023-04-16T05:32:38.102Z,380.00
2023-04-16T05:33:38.083Z,400.00
2023-04-16T05:34:38.059Z,400.00
2023-04-16T05:35:38.059Z,400.00
2023-04-16T05:36:38.043Z,404.00
2023-04-16T05:37:38.048Z,436.00
2023-04-16T05:38:38.035Z,448.00
2023-04-16T05:39:38.673Z,440.00
2023-04-16T05:40:37.997Z,424.00
2023-04-16T05:41:37.986Z,416.00
2023-04-16T05:42:37.983Z,440.00
2023-04-16T05:43:37.955Z,452.00
2023-04-16T05:44:37.953Z,444.00
2023-04-16T05:45:37.935Z,444.00
2023-04-16T05:46:38.122Z,468.00
2023-04-16T05:47:37.952Z,492.00
2023-04-16T05:48:37.903Z,516.00
2023-04-16T05:49:37.896Z,552.00
2023-04-16T05:50:37.918Z,560.00
2023-04-16T05:51:37.866Z,560.00
2023-04-16T05:52:37.874Z,560.00
2023-04-16T05:53:37.846Z,544.00
2023-04-16T05:54:37.883Z,520.00
2023-04-16T05:55:37.844Z,500.00
2023-04-16T05:56:37.820Z,472.00
2023-04-16T05:57:37.829Z,432.00
2023-04-16T05:58:37.815Z,416.00
2023-04-16T05:59:37.796Z,432.00
2023-04-16T06:00:37.771Z,444.00
2023-04-16T06:01:37.779Z,476.00
2023-04-16T06:02:37.973Z,484.00
2023-04-16T06:03:37.880Z,504.00
2023-04-16T06:04:37.747Z,548.00
2023-04-16T06:05:37.777Z,588.00
2023-04-16T06:06:37.739Z,560.00
2023-04-16T06:07:37.703Z,540.00
2023-04-16T06:08:37.731Z,592.00
2023-04-16T06:09:37.671Z,616.00
2023-04-16T06:10:37.687Z,608.00
2023-04-16T06:11:37.661Z,600.00
2023-04-16T06:12:37.716Z,564.00
2023-04-16T06:13:37.630Z,496.00
2023-04-16T06:14:37.629Z,468.00
2023-04-16T06:15:37.720Z,488.00
2023-04-16T06:16:37.604Z,516.00
2023-04-16T06:17:37.616Z,612.00
2023-04-16T06:18:37.592Z,668.00
2023-04-16T06:19:37.585Z,640.00
2023-04-16T06:20:37.555Z,668.00
2023-04-16T06:21:37.540Z,768.00
2023-04-16T06:22:37.606Z,716.00
2023-04-16T06:23:37.537Z,604.00
2023-04-16T06:24:37.544Z,576.00
2023-04-16T06:25:37.508Z,584.00
2023-04-16T06:26:37.530Z,604.00
2023-04-16T06:27:37.481Z,668.00
2023-04-16T06:28:37.492Z,752.00
2023-04-16T06:29:41.701Z,796.00
2023-04-16T06:30:37.457Z,840.00
2023-04-16T06:31:37.466Z,824.00
2023-04-16T06:32:37.478Z,764.00
2023-04-16T06:33:37.412Z,752.00
2023-04-16T06:34:37.449Z,812.00
2023-04-16T06:35:37.402Z,888.00
2023-04-16T06:36:37.387Z,972.00
2023-04-16T06:37:37.382Z,1128.00
2023-04-16T06:38:37.396Z,1236.00
2023-04-16T06:39:37.361Z,1324.00
2023-04-16T06:40:37.337Z,1440.00
2023-04-16T06:41:37.315Z,1592.00
2023-04-16T06:42:37.332Z,1996.00
2023-04-16T06:43:37.310Z,2584.00
2023-04-16T06:44:37.287Z,3220.00
2023-04-16T06:45:44.803Z,3396.00
2023-04-16T06:46:37.338Z,3468.00
2023-04-16T06:47:37.334Z,3672.00
2023-04-16T06:48:37.240Z,3172.00
2023-04-16T06:49:37.245Z,2900.00
2023-04-16T06:50:37.223Z,2892.00
2023-04-16T06:51:37.208Z,2692.00
2023-04-16T06:52:37.214Z,2760.00
2023-04-16T06:53:37.185Z,2900.00
2023-04-16T06:54:37.176Z,2804.00
2023-04-16T06:55:37.164Z,2864.00
2023-04-16T06:56:37.154Z,3272.00
2023-04-16T06:57:37.752Z,3408.00
2023-04-16T06:58:37.174Z,3280.00
2023-04-16T06:59:37.124Z,3280.00
2023-04-16T07:00:37.149Z,3744.00
2023-04-16T07:01:37.115Z,3620.00
2023-04-16T07:02:37.174Z,3408.00
2023-04-16T07:03:37.277Z,3212.00
2023-04-16T07:04:37.067Z,3096.00
2023-04-16T07:05:37.068Z,3176.00
2023-04-16T07:06:37.043Z,3172.00
2023-04-16T07:07:37.033Z,3428.00
2023-04-16T07:08:37.066Z,3712.00
2023-04-16T07:09:37.019Z,3512.00
2023-04-16T07:10:37.011Z,3132.00
2023-04-16T07:11:36.985Z,3152.00
2023-04-16T07:12:36.975Z,3368.00
2023-04-16T07:13:36.963Z,3400.00
2023-04-16T07:14:37.002Z,3556.00
2023-04-16T07:15:36.950Z,3896.00
2023-04-16T07:16:36.984Z,3912.00
2023-04-16T07:17:37.013Z,4084.00
2023-04-16T07:18:36.941Z,4176.00
2023-04-16T07:19:36.924Z,3736.00
2023-04-16T07:20:36.891Z,3276.00
2023-04-16T07:21:36.881Z,3268.00
2023-04-16T07:22:36.878Z,3544.00
2023-04-16T07:23:36.861Z,4136.00
2023-04-16T07:24:36.868Z,4028.00
2023-04-16T07:25:36.861Z,4040.00
2023-04-16T07:26:36.879Z,3996.00
2023-04-16T07:27:36.806Z,4192.00
2023-04-16T07:28:36.823Z,4812.00
2023-04-16T07:29:36.808Z,5724.00
2023-04-16T07:30:36.810Z,6128.00
2023-04-16T07:31:36.855Z,6760.00
2023-04-16T07:32:36.832Z,7148.00
2023-04-16T07:33:36.748Z,8036.00
2023-04-16T07:34:36.737Z,8592.00
2023-04-16T07:35:36.723Z,9008.00
2023-04-16T07:36:36.738Z,11988.00
2023-04-16T07:37:36.721Z,10376.00
2023-04-16T07:38:36.728Z,6816.00
2023-04-16T07:39:36.707Z,5956.00
2023-04-16T07:40:36.678Z,5576.00
2023-04-16T07:41:36.654Z,5224.00
2023-04-16T07:42:36.648Z,5368.00
2023-04-16T07:43:36.645Z,5696.00
2023-04-16T07:44:36.631Z,4760.00
2023-04-16T07:45:36.660Z,4444.00
2023-04-16T07:46:46.119Z,4544.00
2023-04-16T07:47:37.618Z,4820.00
2023-04-16T07:48:36.579Z,5436.00
2023-04-16T07:49:36.576Z,5752.00
2023-04-16T07:50:36.557Z,5268.00
2023-04-16T07:51:36.542Z,5236.00
2023-04-16T07:52:36.555Z,5792.00
2023-04-16T07:53:36.525Z,5748.00
2023-04-16T07:54:36.524Z,5868.00
2023-04-16T07:55:36.500Z,6160.00
2023-04-16T07:56:36.498Z,6400.00
2023-04-16T07:57:36.517Z,5728.00
2023-04-16T07:58:36.467Z,5568.00
2023-04-16T07:59:36.472Z,5640.00
2023-04-16T08:00:36.447Z,5824.00
2023-04-16T08:01:36.443Z,5544.00
2023-04-16T08:02:36.687Z,4996.00
2023-04-16T08:03:36.559Z,4588.00
2023-04-16T08:04:36.596Z,4816.00
2023-04-16T08:05:36.392Z,5188.00
2023-04-16T08:06:36.378Z,4944.00
2023-04-16T08:07:36.381Z,5480.00
2023-04-16T08:08:36.367Z,6348.00
2023-04-16T08:09:36.344Z,6592.00
2023-04-16T08:10:36.338Z,6504.00
2023-04-16T08:11:36.347Z,6928.00
2023-04-16T08:12:36.311Z,7724.00
2023-04-16T08:13:36.298Z,7872.00
2023-04-16T08:14:36.307Z,7908.00
2023-04-16T08:15:36.381Z,8256.00
2023-04-16T08:16:36.266Z,7104.00
2023-04-16T08:17:36.275Z,6736.00
2023-04-16T08:18:36.267Z,6788.00
2023-04-16T08:19:36.237Z,7008.00
2023-04-16T08:20:36.226Z,7720.00
2023-04-16T08:21:36.209Z,8388.00
2023-04-16T08:22:36.217Z,9748.00
2023-04-16T08:23:36.184Z,8544.00
2023-04-16T08:24:36.178Z,7872.00
2023-04-16T08:25:36.177Z,7604.00
2023-04-16T08:26:36.158Z,6956.00
2023-04-16T08:27:36.145Z,6112.00
2023-04-16T08:28:36.136Z,5644.00
2023-04-16T08:29:36.131Z,5580.00
2023-04-16T08:30:36.141Z,5628.00
2023-04-16T08:31:36.154Z,5844.00
2023-04-16T08:32:36.130Z,5648.00
2023-04-16T08:33:36.076Z,5188.00
2023-04-16T08:34:36.086Z,5260.00
2023-04-16T08:35:36.055Z,5308.00
2023-04-16T08:36:36.060Z,5316.00
2023-04-16T08:37:36.044Z,5316.00
2023-04-16T08:38:36.042Z,5252.00
2023-04-16T08:39:36.039Z,4980.00
2023-04-16T08:40:36.005Z,5116.00
2023-04-16T08:41:36.003Z,5248.00
2023-04-16T08:42:35.987Z,5264.00
2023-04-16T08:43:35.973Z,5468.00
2023-04-16T08:44:35.966Z,5480.00
2023-04-16T08:45:35.940Z,5636.00
2023-04-16T08:46:43.473Z,5504.00
2023-04-16T08:47:36.013Z,5560.00
2023-04-16T08:48:35.924Z,5552.00
2023-04-16T08:49:35.891Z,5500.00
2023-04-16T08:50:35.921Z,5176.00
2023-04-16T08:51:35.872Z,5608.00
2023-04-16T08:52:35.865Z,6044.00
2023-04-16T08:53:35.859Z,6452.00
2023-04-16T08:54:35.841Z,6268.00
2023-04-16T08:55:35.825Z,6196.00
2023-04-16T08:56:35.821Z,6068.00
2023-04-16T08:57:35.806Z,6324.00
2023-04-16T08:58:35.808Z,6400.00
2023-04-16T08:59:35.782Z,6968.00
2023-04-16T09:00:35.782Z,7864.00
2023-04-16T09:01:35.807Z,8412.00
2023-04-16T09:02:35.934Z,7932.00
2023-04-16T09:03:36.605Z,7116.00
2023-04-16T09:04:35.859Z,7372.00
2023-04-16T09:05:35.727Z,7944.00
2023-04-16T09:06:35.732Z,8096.00
2023-04-16T09:07:35.706Z,8508.00
2023-04-16T09:08:35.702Z,8224.00
2023-04-16T09:09:35.681Z,8076.00
2023-04-16T09:10:35.666Z,7864.00
2023-04-16T09:11:35.661Z,7740.00
2023-04-16T09:12:35.639Z,7700.00
2023-04-16T09:13:35.621Z,8028.00
2023-04-16T09:14:35.618Z,7672.00
2023-04-16T09:15:35.606Z,8316.00
2023-04-16T09:16:35.667Z,9976.00
2023-04-16T09:17:35.613Z,10212.00
2023-04-16T09:18:35.573Z,10468.00
2023-04-16T09:19:35.559Z,9820.00
2023-04-16T09:20:35.551Z,10352.00
2023-04-16T09:21:35.547Z,10352.00
2023-04-16T09:22:35.555Z,9560.00
2023-04-16T09:23:35.516Z,9588.00
2023-04-16T09:24:35.525Z,9932.00
2023-04-16T09:25:35.503Z,10368.00
2023-04-16T09:26:35.480Z,9988.00
2023-04-16T09:27:35.486Z,9316.00
2023-04-16T09:28:35.487Z,9484.00
2023-04-16T09:29:35.457Z,10080.00
2023-04-16T09:30:35.441Z,10352.00
2023-04-16T09:31:35.477Z,10436.00
2023-04-16T09:32:35.440Z,9964.00
2023-04-16T09:33:35.406Z,9744.00
2023-04-16T09:34:35.397Z,9752.00
2023-04-16T09:35:35.387Z,9080.00
2023-04-16T09:36:35.387Z,8956.00
2023-04-16T09:37:35.358Z,8264.00
2023-04-16T09:38:35.368Z,7528.00
2023-04-16T09:39:35.339Z,7400.00
2023-04-16T09:40:35.338Z,7128.00
2023-04-16T09:41:35.316Z,6828.00
2023-04-16T09:42:35.344Z,6744.00
2023-04-16T09:43:35.294Z,6460.00
2023-04-16T09:44:35.279Z,6296.00
2023-04-16T09:45:35.283Z,6248.00
2023-04-16T09:46:35.281Z,6068.00
2023-04-16T09:47:35.255Z,6008.00
2023-04-16T09:48:35.245Z,5852.00
2023-04-16T09:49:35.227Z,5576.00
2023-04-16T09:50:35.218Z,4912.00
2023-04-16T09:51:35.203Z,4172.00
2023-04-16T09:52:35.214Z,3624.00
2023-04-16T09:53:35.184Z,3164.00
2023-04-16T09:54:35.186Z,2928.00
2023-04-16T09:55:35.170Z,2808.00
2023-04-16T09:56:35.147Z,2724.00
2023-04-16T09:57:35.150Z,2584.00
2023-04-16T09:58:35.123Z,2448.00
2023-04-16T09:59:35.121Z,2312.00
2023-04-16T10:00:35.104Z,2228.00
2023-04-16T10:01:35.216Z,2308.00
2023-04-16T10:02:35.210Z,2544.00
2023-04-16T10:03:35.364Z,2652.00
2023-04-16T10:04:35.179Z,2708.00
2023-04-16T10:05:35.058Z,2640.00
2023-04-16T10:06:35.041Z,2532.00
2023-04-16T10:07:35.057Z,2508.00
2023-04-16T10:08:35.020Z,2432.00
2023-04-16T10:09:35.010Z,2444.00
2023-04-16T10:10:35.025Z,2564.00
2023-04-16T10:11:34.987Z,2876.00
2023-04-16T10:12:34.969Z,3112.00
2023-04-16T10:13:34.959Z,3312.00
2023-04-16T10:14:34.963Z,3428.00
2023-04-16T10:15:34.940Z,3644.00
2023-04-16T10:16:34.937Z,3812.00
2023-04-16T10:17:34.984Z,3880.00
2023-04-16T10:18:34.913Z,4096.00
2023-04-16T10:19:34.914Z,4280.00
2023-04-16T10:20:34.888Z,4292.00
2023-04-16T10:21:34.876Z,4404.00
2023-04-16T10:22:34.866Z,4696.00
2023-04-16T10:23:34.859Z,4940.00
2023-04-16T10:24:34.876Z,4708.00
2023-04-16T10:25:34.829Z,4648.00
2023-04-16T10:26:34.835Z,4628.00
2023-04-16T10:27:34.809Z,4540.00
2023-04-16T10:28:34.802Z,4360.00
2023-04-16T10:29:34.803Z,4044.00
2023-04-16T10:30:34.775Z,3752.00
2023-04-16T10:31:34.760Z,3636.00
2023-04-16T10:32:34.798Z,4104.00
2023-04-16T10:33:34.754Z,4780.00
2023-04-16T10:34:34.743Z,5532.00
2023-04-16T10:35:34.715Z,5936.00
2023-04-16T10:36:34.702Z,6132.00
2023-04-16T10:37:34.720Z,6016.00
2023-04-16T10:38:34.679Z,5960.00
2023-04-16T10:39:34.681Z,5840.00
2023-04-16T10:40:34.683Z,6168.00
2023-04-16T10:41:34.654Z,6548.00
2023-04-16T10:42:34.665Z,6600.00
2023-04-16T10:43:34.638Z,6536.00
2023-04-16T10:44:34.621Z,6552.00
2023-04-16T10:45:34.604Z,6636.00
2023-04-16T10:46:34.662Z,6836.00
2023-04-16T10:47:42.140Z,6908.00
2023-04-16T10:48:46.624Z,6976.00
2023-04-16T10:49:34.559Z,7460.00
2023-04-16T10:50:34.561Z,8012.00
2023-04-16T10:51:34.545Z,8616.00
2023-04-16T10:52:34.520Z,8892.00
2023-04-16T10:53:34.516Z,9384.00
2023-04-16T10:54:34.510Z,9920.00
2023-04-16T10:55:34.490Z,10524.00
2023-04-16T10:56:34.475Z,10628.00
2023-04-16T10:57:34.493Z,10272.00
2023-04-16T10:58:34.476Z,10188.00
2023-04-16T10:59:34.463Z,9976.00
2023-04-16T11:00:34.452Z,9904.00
2023-04-16T11:01:34.449Z,9836.00
2023-04-16T11:02:34.527Z,9524.00
2023-04-16T11:03:34.550Z,8948.00
2023-04-16T11:04:34.490Z,7796.00
2023-04-16T11:05:34.381Z,7152.00
2023-04-16T11:06:34.372Z,6344.00
2023-04-16T11:07:34.353Z,6196.00
2023-04-16T11:08:38.835Z,5792.00
2023-04-16T11:09:34.360Z,5572.00
2023-04-16T11:10:34.329Z,5396.00
2023-04-16T11:11:34.319Z,5352.00
2023-04-16T11:12:34.437Z,5428.00
2023-04-16T11:13:34.303Z,5416.00
2023-04-16T11:14:34.300Z,5936.00
2023-04-16T11:15:34.266Z,6420.00
2023-04-16T11:16:34.310Z,6748.00
2023-04-16T11:17:34.271Z,6992.00
2023-04-16T11:18:34.236Z,7068.00
2023-04-16T11:19:34.246Z,6996.00
2023-04-16T11:20:34.202Z,6804.00
2023-04-16T11:21:34.195Z,7016.00
2023-04-16T11:22:34.199Z,6744.00
2023-04-16T11:23:34.172Z,6248.00
2023-04-16T11:24:34.162Z,5836.00
2023-04-16T11:25:34.208Z,5892.00
2023-04-16T11:26:34.151Z,5844.00
2023-04-16T11:27:34.131Z,5920.00
2023-04-16T11:28:34.124Z,6024.00
2023-04-16T11:29:34.117Z,5972.00
2023-04-16T11:30:34.180Z,6140.00
2023-04-16T11:31:34.124Z,6588.00
2023-04-16T11:32:34.101Z,6832.00
2023-04-16T11:33:34.074Z,6840.00
2023-04-16T11:34:34.042Z,7024.00
2023-04-16T11:35:34.052Z,7028.00
2023-04-16T11:36:34.022Z,6704.00
2023-04-16T11:37:34.036Z,6172.00
2023-04-16T11:38:34.002Z,5752.00
2023-04-16T11:39:33.991Z,5644.00
2023-04-16T11:40:34.001Z,5620.00
2023-04-16T11:41:33.984Z,5604.00
2023-04-16T11:42:33.971Z,5256.00
2023-04-16T11:43:33.955Z,5128.00
2023-04-16T11:44:33.945Z,5016.00
2023-04-16T11:45:33.920Z,4668.00
2023-04-16T11:46:33.961Z,4436.00
2023-04-16T11:47:33.981Z,4324.00
2023-04-16T11:48:33.887Z,4492.00
2023-04-16T11:49:33.899Z,4564.00
2023-04-16T11:50:33.874Z,4776.00
2023-04-16T11:51:33.871Z,4984.00
2023-04-16T11:52:33.871Z,5172.00
2023-04-16T11:53:33.839Z,5504.00
2023-04-16T11:54:33.822Z,6020.00
2023-04-16T11:55:33.816Z,6452.00
2023-04-16T11:56:33.807Z,6744.00
2023-04-16T11:57:33.789Z,6880.00
2023-04-16T11:58:33.773Z,7040.00
2023-04-16T11:59:33.793Z,7452.00
2023-04-16T12:00:33.751Z,7720.00
2023-04-16T12:01:33.744Z,7920.00
2023-04-16T12:02:33.855Z,7924.00
2023-04-16T12:03:34.055Z,7644.00
2023-04-16T12:04:33.844Z,7208.00
2023-04-16T12:05:33.735Z,7044.00
2023-04-16T12:06:33.701Z,6912.00
2023-04-16T12:07:33.679Z,7064.00
2023-04-16T12:08:33.675Z,7240.00
2023-04-16T12:09:33.664Z,7412.00
2023-04-16T12:10:33.644Z,7744.00
2023-04-16T12:11:33.631Z,8172.00
2023-04-16T12:12:33.620Z,8640.00
2023-04-16T12:13:33.627Z,9040.00
2023-04-16T12:14:33.598Z,9184.00
2023-04-16T12:15:33.585Z,9116.00
2023-04-16T12:16:35.746Z,8964.00
2023-04-16T12:17:33.680Z,8864.00
2023-04-16T12:18:33.572Z,8816.00
2023-04-16T12:19:33.544Z,8980.00
2023-04-16T12:20:33.526Z,9068.00
2023-04-16T12:21:33.525Z,9188.00
2023-04-16T12:22:34.726Z,9140.00
2023-04-16T12:23:33.500Z,9012.00
2023-04-16T12:24:33.485Z,8880.00
2023-04-16T12:25:33.477Z,8752.00
2023-04-16T12:26:33.464Z,8464.00
2023-04-16T12:27:33.467Z,8204.00
2023-04-16T12:28:33.446Z,8016.00
2023-04-16T12:29:33.435Z,7756.00
2023-04-16T12:30:33.459Z,7812.00
2023-04-16T12:31:33.409Z,7860.00
2023-04-16T12:32:33.477Z,7972.00
2023-04-16T12:33:33.413Z,8068.00
2023-04-16T12:34:48.159Z,8100.00